Time;durP1;ratioP1;P1;durP2;ratioP2;P2;SDS_P1;SDS_P2;PMS_P1;PMS_P2;Temp;Humidity;BMP_temperature;BMP_pressure;BME280_temperature;BME280_humidity;BME280_pressure;Samples;Min_cycle;Max_cycle;Signal;HPM_P1;HPM_P2
2023/01/27 00:02:23;;;;;;;2.95;1.38;;;;;;;17.11;48.50;102687.72;4829094;29;20038;-78
2023/01/27 00:04:48;;;;;;;4.38;1.20;;;;;;;17.11;48.36;102686.84;4829343;29;20064;-78
2023/01/27 00:07:13;;;;;;;4.85;1.50;;;;;;;17.11;48.50;102690.31;4829388;29;20500;-78
2023/01/27 00:09:40;;;;;;;3.05;1.20;;;;;;;17.11;48.60;102686.84;4831709;29;20038;-77
2023/01/27 00:14:54;;;;;;;2.75;1.30;;;;;;;17.10;48.33;102685.97;4849098;29;20561;-78
2023/01/27 00:17:19;;;;;;;3.25;1.27;;;;;;;17.10;48.57;102679.91;4848563;29;20053;-75
2023/01/27 00:19:45;;;;;;;4.28;1.30;;;;;;;17.10;48.47;102685.09;4801450;29;20030;-78
2023/01/27 00:24:54;;;;;;;5.15;1.42;;;;;;;17.09;48.62;102686.81;4833632;29;20045;-78
2023/01/27 00:27:19;;;;;;;4.35;1.52;;;;;;;17.08;48.37;102687.66;4830792;29;20046;-76
2023/01/27 00:29:45;;;;;;;3.58;1.30;;;;;;;17.09;48.48;102688.53;4815663;29;20143;-78
2023/01/27 00:34:54;;;;;;;;;;;;;;;17.09;48.51;102688.53;4821154;29;20049;-78
2023/01/27 00:37:19;;;;;;;3.80;1.38;;;;;;;17.08;48.36;102684.19;4830855;29;19916;-78
2023/01/27 00:39:45;;;;;;;4.03;1.38;;;;;;;17.08;48.55;102690.28;4831157;29;20116;-78
2023/01/27 00:42:10;;;;;;;4.30;1.33;;;;;;;17.06;48.39;102690.22;4814997;29;20061;-78
2023/01/27 00:44:35;;;;;;;3.30;1.20;;;;;;;17.06;48.34;102692.81;4800309;29;20042;-78
2023/01/27 00:47:01;;;;;;;3.30;1.30;;;;;;;17.05;48.21;102696.28;4845750;29;20069;-75
2023/01/27 00:49:26;;;;;;;3.15;1.30;;;;;;;17.05;48.34;102700.63;4830272;29;20102;-76
2023/01/27 00:51:53;;;;;;;3.28;1.25;;;;;;;17.05;48.35;102698.88;4803406;29;20041;-76
2023/01/27 00:54:19;;;;;;;2.47;1.00;;;;;;;17.04;48.51;102699.72;4821157;29;20069;-77
2023/01/27 00:56:44;;;;;;;4.15;1.15;;;;;;;17.04;48.37;102694.50;4851900;29;20037;-76
2023/01/27 00:59:10;;;;;;;4.05;1.23;;;;;;;17.04;48.51;102710.13;4832978;29;20116;-77
2023/01/27 01:01:36;;;;;;;4.38;1.10;;;;;;;17.04;48.53;102707.50;4833278;29;20430;-77
2023/01/27 01:04:02;;;;;;;3.38;1.20;;;;;;;17.04;48.51;102704.03;4802662;29;20048;-76
2023/01/27 01:06:27;;;;;;;4.32;1.17;;;;;;;17.04;48.38;102698.84;4817467;29;20038;-76
2023/01/27 01:08:55;;;;;;;2.53;1.05;;;;;;;17.03;48.25;102697.97;4802077;29;20048;-77
2023/01/27 01:11:21;;;;;;;3.20;1.25;;;;;;;17.03;48.38;102712.72;4848346;29;20046;-78
2023/01/27 01:13:47;;;;;;;4.20;1.35;;;;;;;17.03;48.39;102704.91;4802012;29;20049;-76
2023/01/27 01:16:16;;;;;;;2.22;1.00;;;;;;;17.02;48.42;102706.59;4847711;29;20048;-79
2023/01/27 01:18:42;;;;;;;3.00;1.08;;;;;;;17.02;48.33;102704.00;4847001;29;20036;-79
2023/01/27 01:21:08;;;;;;;3.55;1.10;;;;;;;17.01;48.43;102707.47;4831046;29;20073;-78
2023/01/27 01:23:36;;;;;;;4.13;1.33;;;;;;;17.01;48.29;102710.06;4847082;29;20132;-77
2023/01/27 01:26:02;;;;;;;3.58;1.30;;;;;;;17.00;48.33;102703.09;4832084;29;20114;-78
2023/01/27 01:28:28;;;;;;;1.98;0.85;;;;;;;17.00;48.25;102705.69;4822580;29;20042;-83
2023/01/27 01:30:54;;;;;;;3.10;1.23;;;;;;;17.01;48.31;102711.78;4851148;29;20405;-83
2023/01/27 01:33:19;;;;;;;3.17;1.00;;;;;;;17.00;48.22;102710.03;4852586;29;20034;-84
2023/01/27 01:35:45;;;;;;;3.65;1.20;;;;;;;16.99;48.61;102706.56;4818580;29;20509;-83
2023/01/27 01:38:10;;;;;;;3.08;1.10;;;;;;;16.99;48.19;102716.94;4821247;29;20037;-83
2023/01/27 01:40:41;;;;;;;3.25;1.05;;;;;;;16.98;48.26;102717.78;4852586;29;20030;-83
2023/01/27 01:43:16;;;;;;;2.20;1.10;;;;;;;16.99;48.26;102718.69;4836533;29;20062;-83
2023/01/27 01:45:58;;;;;;;3.95;1.10;;;;;;;16.97;48.36;102716.03;4851632;29;20501;-83
2023/01/27 01:48:46;;;;;;;2.60;1.10;;;;;;;16.97;48.38;102710.84;4836824;29;20099;-83
2023/01/27 01:51:17;;;;;;;3.05;1.10;;;;;;;16.97;48.29;102710.84;4851974;29;20041;-83
2023/01/27 01:53:57;;;;;;;2.47;1.17;;;;;;;16.97;48.18;102718.63;4852522;29;20042;-82
2023/01/27 01:56:40;;;;;;;2.55;1.05;;;;;;;16.96;48.24;102718.59;4851853;29;20044;-82
2023/01/27 01:59:11;;;;;;;2.23;1.13;;;;;;;16.98;48.34;102714.31;4836305;29;20030;-83
2023/01/27 02:01:37;;;;;;;2.60;1.00;;;;;;;16.96;48.20;102719.50;4850825;29;20396;-83
2023/01/27 02:04:08;;;;;;;3.95;1.00;;;;;;;16.95;48.26;102716.84;4851947;29;20042;-83
2023/01/27 02:06:44;;;;;;;3.25;1.00;;;;;;;16.96;48.32;102724.69;4834609;29;20048;-83
2023/01/27 02:09:10;;;;;;;1.95;0.90;;;;;;;16.95;47.98;102728.13;4851087;29;20044;-83
2023/01/27 02:11:36;;;;;;;3.00;1.10;;;;;;;16.95;48.14;102735.94;4834479;29;20113;-82
2023/01/27 02:14:02;;;;;;;2.22;0.98;;;;;;;16.95;48.18;102735.06;4819815;29;20496;-82
2023/01/27 02:16:28;;;;;;;1.98;0.80;;;;;;;16.95;48.12;102732.47;4850426;29;20097;-82
2023/01/27 02:18:53;;;;;;;3.20;1.00;;;;;;;16.95;48.01;102735.06;4850679;29;20022;-82
2023/01/27 02:21:19;;;;;;;2.63;0.90;;;;;;;16.94;48.29;102733.28;4835758;29;20128;-81
2023/01/27 02:23:59;;;;;;;3.17;1.05;;;;;;;16.94;48.11;102749.78;4833961;29;20485;-82
2023/01/27 02:26:36;;;;;;;3.58;1.20;;;;;;;16.93;48.23;102739.34;4859215;29;20049;-83
2023/01/27 02:29:08;;;;;;;1.83;0.80;;;;;;;16.95;48.16;102735.06;4861149;29;20034;-83
2023/01/27 02:31:34;;;;;;;2.10;1.08;;;;;;;16.94;48.12;102741.97;4848333;29;20045;-84
2023/01/27 02:34:28;;;;;;;2.90;1.20;;;;;;;16.95;48.29;102745.47;4819481;29;20140;-84
2023/01/27 02:36:57;;;;;;;2.15;1.00;;;;;;;16.95;48.26;102753.25;4858066;29;20054;-84
2023/01/27 02:39:30;;;;;;;2.53;1.10;;;;;;;16.95;48.10;102748.06;4852867;29;20037;-83
2023/01/27 02:41:57;;;;;;;2.08;0.90;;;;;;;16.94;48.19;102752.38;4851043;29;20057;-82
2023/01/27 02:44:22;;;;;;;1.63;0.80;;;;;;;16.94;48.23;102755.00;4818583;29;20038;-81
2023/01/27 02:46:48;;;;;;;2.25;0.90;;;;;;;16.95;48.14;102746.31;4846642;29;20044;-82
2023/01/27 02:49:14;;;;;;;2.90;1.00;;;;;;;16.94;48.15;102749.78;4847995;29;20038;-81
2023/01/27 02:51:39;;;;;;;2.50;1.10;;;;;;;16.94;48.19;102755.00;4831007;29;20049;-83
2023/01/27 02:54:05;;;;;;;2.22;1.00;;;;;;;16.94;48.10;102752.38;4816933;29;20038;-83
2023/01/27 02:56:31;;;;;;;2.28;0.90;;;;;;;16.94;48.25;102744.59;4831017;29;20048;-84
2023/01/27 02:58:56;;;;;;;2.72;1.10;;;;;;;16.94;48.21;102746.28;4830756;29;20034;-81
2023/01/27 03:01:23;;;;;;;2.72;1.00;;;;;;;16.94;48.22;102754.09;4830551;29;20194;-81
2023/01/27 03:03:50;;;;;;;2.40;0.82;;;;;;;16.93;48.12;102752.34;4816083;29;20097;-82
2023/01/27 03:06:16;;;;;;;1.65;0.80;;;;;;;16.93;48.37;102761.00;4831568;29;20038;-82
2023/01/27 03:08:42;;;;;;;2.28;0.90;;;;;;;16.93;48.30;102766.22;4847564;29;20071;-82
2023/01/27 03:11:08;;;;;;;2.50;1.05;;;;;;;16.92;47.76;102769.69;4832517;29;20051;-83
2023/01/27 03:13:35;;;;;;;1.67;0.93;;;;;;;16.92;48.07;102773.97;4831889;29;20094;-83
2023/01/27 03:18:48;;;;;;;2.53;1.08;;;;;;;16.91;48.14;102773.09;4834977;29;20397;-83
2023/01/27 03:21:15;;;;;;;2.80;0.98;;;;;;;16.90;48.23;102779.16;4833170;29;20053;-83
2023/01/27 03:23:41;;;;;;;1.83;0.93;;;;;;;16.89;48.23;102777.38;4849217;29;20030;-84
2023/01/27 03:26:08;;;;;;;2.60;1.10;;;;;;;16.88;48.18;102778.25;4833480;29;20438;-82
2023/01/27 03:28:34;;;;;;;1.92;0.80;;;;;;;16.89;48.21;102784.31;4832171;29;20133;-82
2023/01/27 03:31:01;;;;;;;1.80;0.80;;;;;;;16.88;48.16;102786.03;4830983;29;20502;-81
2023/01/27 03:33:27;;;;;;;2.13;0.90;;;;;;;16.87;48.10;102789.47;4816674;29;20050;-82
2023/01/27 03:46:49;;;;;;;2.42;0.93;;;;;;;16.85;48.13;102794.66;4851130;29;20049;-81
2023/01/27 03:49:15;;;;;;;1.98;1.00;;;;;;;16.85;48.25;102801.56;4819785;29;20038;-81
2023/01/27 03:51:40;;;;;;;1.67;0.90;;;;;;;16.85;48.20;102798.94;4819130;29;20041;-81
2023/01/27 03:54:05;;;;;;;1.70;0.88;;;;;;;16.85;47.98;102801.56;4851320;29;20049;-83
2023/01/27 03:56:31;;;;;;;1.73;0.82;;;;;;;16.85;48.04;102802.44;4821488;29;20378;-83
2023/01/27 03:58:56;;;;;;;1.50;0.77;;;;;;;16.85;48.02;102805.06;4835590;29;20049;-83
2023/01/27 04:01:23;;;;;;;1.75;1.00;;;;;;;16.86;48.08;102812.00;4805287;29;20045;-82
2023/01/27 04:09:23;;;;;;;1.65;0.90;;;;;;;16.85;48.11;102820.66;4851039;29;20056;-82
2023/01/27 04:11:55;;;;;;;1.38;0.90;;;;;;;16.84;48.05;102816.28;4850483;29;20493;-82
2023/01/27 04:14:20;;;;;;;1.50;0.70;;;;;;;16.86;47.99;102816.34;4835172;29;20054;-83
2023/01/27 04:16:46;;;;;;;1.80;0.80;;;;;;;16.85;48.20;102820.66;4851179;29;20042;-81
2023/01/27 04:19:11;;;;;;;2.20;0.85;;;;;;;16.85;48.05;102820.66;4805891;29;20034;-83
2023/01/27 04:21:38;;;;;;;1.27;0.70;;;;;;;16.86;48.16;102824.13;4821446;29;20562;-83
2023/01/27 04:24:07;;;;;;;1.58;0.70;;;;;;;16.86;47.89;102824.13;4835018;29;20041;-81
2023/01/27 04:26:33;;;;;;;0.90;0.50;;;;;;;16.85;48.02;102823.25;4850109;29;20132;-82
2023/01/27 04:29:02;;;;;;;1.60;0.88;;;;;;;16.85;48.03;102833.66;4819688;29;20586;-82
2023/01/27 04:31:28;;;;;;;1.25;0.68;;;;;;;16.85;48.06;102822.34;4849776;29;20030;-81
2023/01/27 04:33:53;;;;;;;1.42;0.68;;;;;;;16.84;47.97;102821.47;4848454;29;20041;-82
2023/01/27 04:36:19;;;;;;;1.10;0.68;;;;;;;16.85;47.95;102823.25;4804786;29;20042;-82
2023/01/27 04:38:44;;;;;;;0.70;0.45;;;;;;;16.85;47.93;102831.06;4820133;29;20034;-81
2023/01/27 04:41:10;;;;;;;1.15;0.60;;;;;;;16.85;48.19;102841.47;4818942;29;20476;-81
2023/01/27 04:43:35;;;;;;;0.85;0.50;;;;;;;16.85;47.89;102836.25;4819369;29;20060;-83
2023/01/27 04:46:01;;;;;;;0.77;0.55;;;;;;;16.85;47.97;102837.97;4834929;29;20038;-83
2023/01/27 04:48:27;;;;;;;1.52;0.60;;;;;;;16.85;48.24;102835.34;4819386;29;20117;-83
2023/01/27 04:50:52;;;;;;;1.50;0.70;;;;;;;16.84;48.08;102849.22;4819595;29;20507;-83
2023/01/27 04:53:18;;;;;;;1.50;0.73;;;;;;;16.83;48.26;102837.03;4850454;29;20137;-82
2023/01/27 04:55:47;;;;;;;1.48;0.45;;;;;;;16.83;48.29;102840.53;4818457;29;20101;-83
2023/01/27 04:58:13;;;;;;;1.10;0.70;;;;;;;16.83;48.08;102844.84;4850917;29;20109;-82
2023/01/27 05:00:39;;;;;;;1.63;0.60;;;;;;;16.82;48.10;102849.16;4834422;29;20033;-82
2023/01/27 05:03:04;;;;;;;2.15;0.70;;;;;;;16.82;47.90;102843.97;4804104;29;20602;-82
2023/01/27 05:05:31;;;;;;;1.17;0.60;;;;;;;16.83;48.04;102848.34;4808773;29;20140;-83
2023/01/27 05:08:01;;;;;;;0.80;0.40;;;;;;;16.82;47.89;102837.88;4837399;29;20041;-84
2023/01/27 05:10:27;;;;;;;1.48;0.65;;;;;;;16.82;48.05;102848.28;4843247;29;20037;-83
2023/01/27 05:12:52;;;;;;;0.90;0.40;;;;;;;16.83;48.13;102843.13;4842388;29;20064;-84
2023/01/27 05:15:17;;;;;;;1.85;0.57;;;;;;;16.82;48.02;102841.38;4840667;29;20049;-84
2023/01/27 05:17:43;;;;;;;1.08;0.50;;;;;;;16.82;48.00;102851.75;4854362;29;20046;-84
2023/01/27 05:20:09;;;;;;;1.40;0.60;;;;;;;16.83;47.94;102850.03;4808968;29;20110;-82
2023/01/27 05:22:34;;;;;;;1.10;0.50;;;;;;;16.83;48.21;102850.03;4834368;29;20030;-84
2023/01/27 05:24:59;;;;;;;1.05;0.43;;;;;;;16.82;48.08;102849.16;4820127;29;20049;-85
2023/01/27 05:27:25;;;;;;;1.30;0.60;;;;;;;16.81;48.00;102847.41;4864907;29;20070;-84
2023/01/27 05:29:50;;;;;;;0.88;0.55;;;;;;;16.82;48.03;102850.88;4833979;29;20042;-84
2023/01/27 05:32:16;;;;;;;1.00;0.60;;;;;;;16.82;48.10;102859.56;4833897;29;20139;-84
2023/01/27 05:34:41;;;;;;;1.33;0.60;;;;;;;16.82;47.90;102858.69;4817008;29;20034;-85
2023/01/27 05:37:06;;;;;;;1.17;0.50;;;;;;;16.82;48.04;102856.09;4843496;29;20478;-83
2023/01/27 05:39:32;;;;;;;0.98;0.50;;;;;;;16.82;48.06;102856.09;4811264;29;20110;-83
2023/01/27 05:41:57;;;;;;;1.15;0.60;;;;;;;16.82;48.08;102864.75;4854168;29;20069;-83
2023/01/27 05:44:22;;;;;;;0.98;0.50;;;;;;;16.82;48.16;102864.75;4839227;29;20050;-81
2023/01/27 05:46:48;;;;;;;0.93;0.50;;;;;;;16.82;47.97;102869.09;4822063;29;20030;-82
2023/01/27 05:49:13;;;;;;;0.82;0.50;;;;;;;16.82;48.09;102871.69;4836642;29;20038;-83
2023/01/27 05:51:39;;;;;;;1.38;0.40;;;;;;;16.83;47.99;102881.25;4837804;29;20067;-84
2023/01/27 05:54:05;;;;;;;0.73;0.38;;;;;;;16.81;48.16;102873.41;4840176;29;20034;-81
2023/01/27 05:56:32;;;;;;;1.23;0.47;;;;;;;16.81;47.92;102870.81;4819945;29;20098;-82
2023/01/27 05:58:58;;;;;;;0.75;0.47;;;;;;;16.81;48.09;102872.50;4821727;29;20038;-83
2023/01/27 06:01:25;;;;;;;0.85;0.40;;;;;;;16.81;48.15;102880.31;4837774;29;20058;-83
2023/01/27 06:03:52;;;;;;;1.33;0.50;;;;;;;16.81;48.06;102877.72;4841047;29;20029;-86
2023/01/27 06:11:29;;;;;;;8.90;3.05;;;;;;;16.82;48.07;102876.91;5221930;23;20065;-81
2023/01/27 06:13:55;;;;;;;8.45;3.40;;;;;;;16.81;48.05;102873.41;4828718;29;20041;-80
2023/01/27 06:26:38;;;;;;;9.40;3.30;;;;;;;16.81;48.03;102882.91;4886700;29;20146;-84
2023/01/27 06:33:15;;;;;;;8.57;3.25;;;;;;;16.82;48.00;102888.16;4882298;29;20441;-83
2023/01/27 06:45:37;;;;;;;10.10;2.92;;;;;;;16.81;48.32;102889.03;4830310;29;20052;-84
2023/01/27 06:51:58;;;;;;;10.18;3.05;;;;;;;16.81;48.12;102890.72;4830025;29;20037;-85
2023/01/27 06:55:20;;;;;;;6.43;2.67;;;;;;;16.80;48.37;102894.19;4830056;29;20027;-85
2023/01/27 07:00:59;;;;;;;6.22;2.55;;;;;;;16.80;48.15;102895.03;4881879;29;20058;-82
2023/01/27 07:03:25;;;;;;;6.13;2.40;;;;;;;16.82;48.54;102892.50;4883423;29;20033;-82
2023/01/27 07:05:52;;;;;;;7.18;2.60;;;;;;;16.80;48.49;102897.66;4868995;29;20025;-83
2023/01/27 07:08:17;;;;;;;8.00;2.95;;;;;;;16.81;48.23;102898.53;4869597;29;20049;-82
2023/01/27 07:10:43;;;;;;;5.50;2.35;;;;;;;16.80;48.13;102907.19;4869573;29;20041;-83
2023/01/27 07:13:12;;;;;;;7.35;3.50;;;;;;;16.84;48.50;102915.09;4884519;29;20037;-83
2023/01/27 07:15:42;;;;;;;10.18;3.67;;;;;;;16.89;48.74;102916.94;4862955;29;20520;-81
2023/01/27 07:20:41;;;;;;;13.48;4.30;;;;;;;17.11;48.55;102926.19;4865443;29;20042;-83
2023/01/27 07:23:08;;;;;;;9.65;3.97;;;;;;;17.14;48.65;102928.88;4882211;23;20121;-84
2023/01/27 08:55:31;;;;;;;5.78;2.42;;;;;;;17.38;47.83;102986.75;4956304;23;20054;-79
2023/01/27 08:57:58;;;;;;;3.75;1.80;;;;;;;17.38;48.12;102981.53;4850176;29;20060;-80
2023/01/27 09:00:23;;;;;;;5.25;2.00;;;;;;;17.39;47.83;102985.00;4850136;29;20041;-81
2023/01/27 09:02:51;;;;;;;4.22;2.10;;;;;;;17.39;47.75;102978.06;4849521;29;20089;-79
2023/01/27 09:05:18;;;;;;;5.05;1.98;;;;;;;17.40;48.06;102985.06;4834065;29;20041;-79
2023/01/27 09:07:49;;;;;;;3.25;1.70;;;;;;;17.38;47.85;102986.75;4834184;29;20424;-79
2023/01/27 09:10:18;;;;;;;4.57;1.80;;;;;;;17.42;47.71;102998.09;4848705;29;20505;-79
2023/01/27 09:12:44;;;;;;;4.70;1.60;;;;;;;17.42;47.76;102992.88;4849395;29;20045;-80
2023/01/27 09:15:11;;;;;;;3.35;1.80;;;;;;;17.42;47.63;102992.88;4866673;29;20040;-80
2023/01/27 09:17:46;;;;;;;3.63;1.42;;;;;;;17.43;47.68;102994.66;4851096;29;20068;-80
2023/01/27 09:20:12;;;;;;;3.25;1.60;;;;;;;17.43;47.74;102999.88;4837220;29;20450;-80
2023/01/27 11:16:21;;;;;;;1.05;0.70;;;;;;;17.76;46.49;103010.22;5920730;23;21157;31
2023/01/27 11:31:36;;;;;;;1.23;0.80;;;;;;;17.76;46.67;103005.03;5950410;23;20230;31
2023/01/27 11:34:33;;;;;;;2.95;0.80;;;;;;;17.74;46.82;103001.50;4858531;29;20054;-82
2023/01/27 11:37:07;;;;;;;1.35;0.63;;;;;;;17.74;46.55;102995.41;4827829;29;20061;-79
2023/01/27 11:39:33;;;;;;;1.58;0.70;;;;;;;17.75;46.79;102998.06;4834686;29;20034;-81
2023/01/27 11:56:35;;;;;;;1.13;0.80;;;;;;;17.79;46.74;102975.56;4879835;29;20083;-88
2023/01/27 13:53:20;;;;;;;0.77;0.40;;;;;;;17.66;46.81;102961.41;4834436;29;20273;-81
2023/01/27 13:56:10;;;;;;;0.73;0.40;;;;;;;17.64;46.47;102950.94;4797039;29;20054;-81
2023/01/27 13:58:51;;;;;;;1.35;0.50;;;;;;;17.65;46.57;102955.28;4821610;29;20031;-82
2023/01/27 14:01:32;;;;;;;0.65;0.47;;;;;;;17.66;46.73;102961.41;4816335;29;20047;-81
2023/01/27 14:04:01;;;;;;;0.52;0.40;;;;;;;17.65;46.55;102965.69;4814808;29;20045;-81
2023/01/27 14:07:02;;;;;;;0.65;0.30;;;;;;;17.65;46.51;102970.91;4816143;29;20122;-81
2023/01/27 14:09:35;;;;;;;0.63;0.40;;;;;;;17.65;46.68;102954.41;4815592;29;20049;-81
2023/01/27 14:12:10;;;;;;;0.63;0.35;;;;;;;17.64;46.39;102961.34;4815455;29;20042;-81
2023/01/27 14:14:56;;;;;;;0.63;0.50;;;;;;;17.64;46.84;102956.16;4815337;29;20046;-81
2023/01/27 14:18:03;;;;;;;0.68;0.40;;;;;;;17.65;46.80;102959.63;4812351;29;20042;-81
2023/01/27 14:20:58;;;;;;;0.50;0.40;;;;;;;17.64;46.47;102969.16;4758136;30;20105;-81
2023/01/27 14:23:32;;;;;;;0.30;0.28;;;;;;;17.65;46.84;102970.03;4740398;30;20044;-81
2023/01/27 14:26:32;;;;;;;0.75;0.45;;;;;;;17.64;46.36;102957.88;4795901;29;20107;-81
2023/01/27 14:29:24;;;;;;;0.30;0.30;;;;;;;17.64;46.68;102966.56;4814051;29;20035;-81
2023/01/27 14:32:13;;;;;;;0.38;0.30;;;;;;;17.64;46.44;102966.56;4831279;29;20049;-81
2023/01/27 14:35:12;;;;;;;0.75;0.40;;;;;;;17.65;46.38;102972.63;4817331;29;20068;-81
2023/01/27 14:38:13;;;;;;;0.40;0.30;;;;;;;17.63;46.43;102972.59;4830892;29;20118;-81
2023/01/27 14:40:52;;;;;;;0.30;0.22;;;;;;;17.65;46.51;102972.63;4807444;29;20065;-81
2023/01/27 14:43:27;;;;;;;0.63;0.30;;;;;;;17.65;46.59;102973.50;4821768;29;20075;-81
2023/01/27 14:46:11;;;;;;;0.30;0.30;;;;;;;17.64;46.54;102968.28;4842212;29;20498;-81
2023/01/27 14:49:15;;;;;;;0.47;0.30;;;;;;;17.64;46.45;102968.28;4845511;29;20086;-81
2023/01/27 14:52:03;;;;;;;0.40;0.30;;;;;;;17.64;46.26;102970.91;4780930;29;20513;-81
2023/01/27 14:54:50;;;;;;;0.32;0.28;;;;;;;17.65;46.53;102975.25;4817398;29;20147;-81
2023/01/27 14:57:40;;;;;;;0.30;0.30;;;;;;;17.65;46.42;102975.25;4815872;29;20134;-81
2023/01/27 15:00:31;;;;;;;0.63;0.38;;;;;;;17.64;46.53;102969.16;4815619;29;20062;-81
2023/01/27 15:03:18;;;;;;;0.30;0.30;;;;;;;17.64;46.51;102974.38;4814367;29;20428;-81
2023/01/27 15:06:10;;;;;;;0.30;0.22;;;;;;;17.65;46.49;102980.44;4815716;29;20034;-80
2023/01/27 15:08:50;;;;;;;1.02;0.40;;;;;;;17.64;46.58;102981.31;4816836;29;20064;-81
2023/01/27 15:11:49;;;;;;;0.75;0.40;;;;;;;17.65;46.57;102972.63;4820296;29;20038;-79
2023/01/27 15:14:28;;;;;;;0.20;0.20;;;;;;;17.64;46.28;102974.38;4819824;29;20039;-79
2023/01/27 15:17:13;;;;;;;0.88;0.30;;;;;;;17.65;46.50;102986.53;4824068;29;20038;-80
2023/01/27 15:20:00;;;;;;;0.30;0.30;;;;;;;17.64;46.47;102984.78;4823901;29;20065;-81
2023/01/27 15:22:52;;;;;;;0.30;0.30;;;;;;;17.64;46.74;102983.91;4823391;29;20042;-81
2023/01/27 15:25:20;;;;;;;0.63;0.30;;;;;;;17.65;46.69;102980.44;4839675;29;20042;-81
2023/01/27 15:27:47;;;;;;;2.05;0.30;;;;;;;17.64;46.37;102979.59;4816539;29;20164;-79
2023/01/27 15:30:37;;;;;;;1.38;0.40;;;;;;;17.67;46.55;102978.75;4800521;29;20038;-80
2023/01/27 15:33:41;;;;;;;0.50;0.30;;;;;;;17.67;46.28;102989.19;4816229;29;20042;-80
2023/01/27 15:36:31;;;;;;;1.58;0.47;;;;;;;17.64;46.44;102987.38;4814696;29;20065;-78
2023/01/27 15:39:02;;;;;;;1.75;0.40;;;;;;;17.64;46.53;102986.53;4828411;29;20067;-77
2023/01/27 15:41:29;;;;;;;2.55;0.40;;;;;;;17.63;46.24;102992.56;4813337;29;20045;-77
2023/01/27 15:44:24;;;;;;;0.93;0.40;;;;;;;17.62;46.47;102996.88;4812845;29;20047;-77
2023/01/27 15:46:51;;;;;;;7.43;0.43;;;;;;;17.61;46.48;102994.22;4829720;29;20121;-78
2023/01/27 15:49:26;;;;;;;4.43;0.30;;;;;;;17.60;46.47;102995.09;4830700;29;20360;-77
2023/01/27 15:51:55;;;;;;;0.80;0.45;;;;;;;17.60;46.38;103001.16;4816316;29;20054;-77
2023/01/27 15:54:25;;;;;;;1.63;0.40;;;;;;;17.64;46.71;103007.34;4814432;29;20099;-75
2023/01/27 15:56:53;;;;;;;3.72;0.50;;;;;;;17.64;46.51;103002.13;4813022;29;20478;-76
2023/01/27 15:59:28;;;;;;;1.85;0.50;;;;;;;17.64;46.65;103008.22;4783279;29;20042;-76
2023/01/27 16:02:24;;;;;;;2.17;0.47;;;;;;;17.64;46.43;103013.44;4812380;29;20038;-75
2023/01/27 16:05:02;;;;;;;1.83;0.55;;;;;;;17.64;46.56;103021.25;4810492;29;20038;-75
2023/01/27 16:07:31;;;;;;;3.08;0.45;;;;;;;17.65;46.53;103016.91;4828770;29;20045;-76
2023/01/27 16:09:58;;;;;;;2.58;0.40;;;;;;;17.65;46.43;103016.91;4811724;29;20038;-75
2023/01/27 16:12:27;;;;;;;2.30;0.50;;;;;;;17.64;46.72;103018.63;4796682;29;20042;-76
2023/01/27 16:15:14;;;;;;;1.80;0.40;;;;;;;17.64;46.54;103010.81;4827781;29;20045;-76
2023/01/27 16:18:21;;;;;;;1.58;0.50;;;;;;;17.64;46.62;103018.63;4811506;29;20035;-76
2023/01/27 16:21:01;;;;;;;1.60;0.55;;;;;;;17.65;46.66;103024.72;4827746;29;20131;-76
2023/01/27 16:23:39;;;;;;;2.17;0.40;;;;;;;17.64;46.62;103016.03;4811516;29;20045;-76
2023/01/27 16:26:26;;;;;;;0.90;0.40;;;;;;;17.64;46.59;103025.56;4811563;29;20045;-76
2023/01/27 16:29:16;;;;;;;0.98;0.40;;;;;;;17.64;46.72;103031.66;4811325;29;20038;-76
2023/01/27 16:31:44;;;;;;;1.40;0.50;;;;;;;17.64;46.50;103031.66;4827561;29;20042;-76
2023/01/27 16:34:22;;;;;;;2.60;0.43;;;;;;;17.63;46.63;103032.47;4811322;29;20049;-76
2023/01/27 16:37:00;;;;;;;1.00;0.30;;;;;;;17.64;46.57;103025.56;4827447;29;20065;-76
2023/01/27 16:39:37;;;;;;;0.77;0.30;;;;;;;17.64;46.72;103026.44;4811485;29;20481;-77
2023/01/27 16:42:04;;;;;;;0.52;0.30;;;;;;;17.63;46.61;103027.28;4811530;29;20564;-77
2023/01/27 16:44:40;;;;;;;3.33;0.73;;;;;;;17.64;46.84;103025.56;4781553;29;20045;-77
2023/01/27 16:47:17;;;;;;;1.27;0.52;;;;;;;17.64;46.74;103036.00;4811431;29;20423;-76
2023/01/27 16:49:43;;;;;;;0.50;0.38;;;;;;;17.63;46.55;103035.09;4810790;29;20102;-76
2023/01/27 16:52:28;;;;;;;1.13;0.43;;;;;;;17.64;46.80;103042.06;4806645;29;20081;-77
2023/01/27 16:54:55;;;;;;;1.95;0.38;;;;;;;17.64;46.58;103043.81;4793181;29;20513;-76
2023/01/27 16:57:27;;;;;;;0.68;0.30;;;;;;;17.64;46.61;103043.81;4778415;29;20043;-77
2023/01/27 16:59:54;;;;;;;0.75;0.40;;;;;;;17.63;46.68;103042.03;4793586;29;20428;-76
2023/01/27 17:02:22;;;;;;;0.75;0.32;;;;;;;17.64;46.59;103041.19;4793147;29;20074;-77
2023/01/27 17:04:55;;;;;;;1.70;0.50;;;;;;;17.64;46.53;103042.06;4792844;29;20035;-77
2023/01/27 17:07:21;;;;;;;0.38;0.30;;;;;;;17.64;46.60;103046.41;4809065;29;20074;-77
2023/01/27 17:09:52;;;;;;;0.55;0.50;;;;;;;17.64;46.64;103044.66;4793012;29;20047;-77
2023/01/27 17:12:31;;;;;;;0.85;0.30;;;;;;;17.64;46.57;103049.88;4793686;29;20462;-77
2023/01/27 17:14:59;;;;;;;0.77;0.45;;;;;;;17.64;46.64;103049.88;4793234;29;20039;-77
2023/01/27 17:17:27;;;;;;;0.77;0.40;;;;;;;17.64;46.67;103052.47;4796575;29;20039;-77
2023/01/27 17:20:05;;;;;;;1.33;0.50;;;;;;;17.64;46.58;103046.41;4801198;29;20031;-78
2023/01/27 17:22:41;;;;;;;0.40;0.40;;;;;;;17.63;46.55;103048.09;4799710;29;20050;-77
2023/01/27 17:25:18;;;;;;;1.20;0.40;;;;;;;17.64;46.58;103056.81;4796655;29;20039;-78
2023/01/27 17:27:44;;;;;;;0.77;0.40;;;;;;;17.63;46.46;103057.63;4795239;29;20045;-78
2023/01/27 17:30:18;;;;;;;3.67;0.40;;;;;;;17.62;46.66;103059.38;4779418;29;20039;-78
2023/01/27 17:32:48;;;;;;;;;;;;;;;17.63;46.60;103053.31;4794580;29;20046;-78
2023/01/27 17:35:24;;;;;;;1.13;0.50;;;;;;;17.65;46.57;103067.25;4810668;29;19920;-78
2023/01/27 17:37:50;;;;;;;1.42;0.30;;;;;;;17.66;46.59;103070.75;4794640;29;20134;-76
2023/01/27 17:40:21;;;;;;;2.17;0.50;;;;;;;17.69;46.71;103073.44;4781477;29;20031;-78
2023/01/27 17:42:48;;;;;;;0.63;0.40;;;;;;;17.73;46.56;103084.81;4811215;29;20038;-78
2023/01/27 17:45:21;;;;;;;0.52;0.40;;;;;;;17.73;46.48;103083.09;4794586;29;20172;-77
2023/01/27 17:47:47;;;;;;;1.65;0.50;;;;;;;17.75;46.49;103080.53;4794021;29;20123;-77
2023/01/27 17:50:19;;;;;;;0.85;0.47;;;;;;;17.77;46.65;103084.94;4779176;29;20039;-78
2023/01/27 17:52:46;;;;;;;6.82;0.60;;;;;;;17.80;46.73;103085.00;4792906;29;20058;-78
2023/01/27 17:55:21;;;;;;;3.75;0.40;;;;;;;17.77;46.24;103084.94;4794084;29;20039;-80
2023/01/27 17:57:49;;;;;;;4.53;0.70;;;;;;;17.74;46.49;103090.03;4793589;29;20022;-78
2023/01/27 18:00:28;;;;;;;5.88;0.55;;;;;;;17.72;46.59;103096.06;4792757;29;20042;-78
2023/01/27 18:03:05;;;;;;;1.88;0.50;;;;;;;17.70;46.76;103098.59;4793881;29;20038;-78
2023/01/27 18:05:32;;;;;;;3.83;0.40;;;;;;;17.69;46.62;103095.13;4793384;29;20045;-78
2023/01/27 18:07:59;;;;;;;2.70;0.50;;;;;;;17.69;46.80;103099.47;4808567;29;20035;-78
2023/01/27 18:10:46;;;;;;;1.00;0.50;;;;;;;17.68;46.62;103097.69;4792383;29;20035;-77
2023/01/27 18:13:14;;;;;;;3.63;0.47;;;;;;;17.69;46.61;103105.53;4791643;29;20068;-78
2023/01/27 18:15:41;;;;;;;1.95;0.68;;;;;;;17.69;46.62;103105.53;4792101;29;20129;-78
2023/01/27 18:18:23;;;;;;;1.83;0.40;;;;;;;17.70;47.04;103109.03;4792112;29;20047;-78
2023/01/27 18:20:52;;;;;;;1.73;0.50;;;;;;;17.71;46.71;103107.31;4808395;29;20051;-78
2023/01/27 18:23:24;;;;;;;2.45;0.50;;;;;;;17.71;46.57;103116.00;4791613;29;20046;-78
2023/01/27 18:26:20;;;;;;;1.63;0.40;;;;;;;17.73;47.03;103123.88;4791784;29;20073;-78
2023/01/27 18:29:12;;;;;;;0.30;0.30;;;;;;;17.74;46.85;103113.47;4779878;29;20486;-79
2023/01/27 18:31:45;;;;;;;2.40;0.50;;;;;;;17.76;47.05;103131.75;4808185;29;20398;-79
2023/01/27 18:34:29;;;;;;;1.10;0.60;;;;;;;17.77;47.27;103118.78;4792315;29;20482;-80
2023/01/27 18:36:58;;;;;;;2.33;0.50;;;;;;;17.80;47.16;103115.38;4791646;29;20049;-78
2023/01/27 18:39:38;;;;;;;1.15;0.40;;;;;;;17.79;47.28;103122.31;4808371;29;20102;-77
2023/01/27 18:42:12;;;;;;;2.55;0.40;;;;;;;17.80;47.31;103128.41;4776978;29;20043;-77